ěÝzenÝ letovÚho provozu ╚eskÚ republiky
Letiste: LKKB Aktualizace: 26.11.2022 19:29:32  UTC
 METAR LKKB 26.11. 19:30 ...
METAR LKKB 261930Z 24005KT 9999 OVC048 05/03 Q1030 NOSIG RMK BLU BLU=
 TAF LKKB 26.11. 17:00 ...
TAF LKKB 261700Z 2618/2718 25004KT CAVOK      BECMG 2623/2701 6000      BECMG 2701/2704 2000 BR BKN003      PROB40 TEMPO 2702/2710 0600 FG VV001      BECMG 2709/2711 12004KT 5000 BR BKN008      TEMPO 2710/2716 8000 SCT015      BECMG 2716/2718 2000 BR BKN004=